Time;durP1;ratioP1;P1;durP2;ratioP2;P2;SDS_P1;SDS_P2;PMS_P1;PMS_P2;Temp;Humidity;BMP_temperature;BMP_pressure;BME280_temperature;BME280_humidity;BME280_pressure;Samples;Min_cycle;Max_cycle;Signal;HPM_P1;HPM_P2
2022/10/26 00:00:04;;;;;;;;;;;;;;;13.74;100.00;100465.16;3055901;19;19929;-52
2022/10/26 00:01:15;;;;;;;;;;;;;;;13.75;100.00;100458.84;3057117;19;20023;-52
2022/10/26 00:02:17;;;;;;;;;;;;;;;13.76;100.00;100460.56;3056487;19;20377;-52
2022/10/26 00:03:22;;;;;;;;;;;;;;;13.77;100.00;100448.81;3056728;19;19918;-52
2022/10/26 00:04:23;;;;;;;;;;;;;;;13.81;100.00;100455.69;3056598;19;20342;-52
2022/10/26 00:05:28;;;;;;;;;;;;;;;13.83;100.00;100456.41;3056796;19;19919;-52
2022/10/26 00:06:30;;;;;;;;;;;;;;;13.87;100.00;100455.22;3056683;19;20137;-52
2022/10/26 00:07:34;;;;;;;;;;;;;;;13.89;100.00;100458.63;3056592;19;19919;-52
2022/10/26 00:08:36;;;;;;;;;;;;;;;13.93;100.00;100460.09;3056689;19;19935;-52
2022/10/26 00:09:41;;;;;;;;;;;;;;;13.95;100.00;100471.59;3056220;19;19926;-52
2022/10/26 00:10:42;;;;;;;;;;;;;;;13.96;100.00;100465.25;3056539;19;19919;-52
2022/10/26 00:11:47;;;;;;;;;;;;;;;13.99;100.00;100467.72;3056986;19;19941;-53
2022/10/26 00:12:49;;;;;;;;;;;;;;;13.98;100.00;100474.03;3056874;19;19923;-53
2022/10/26 00:13:54;;;;;;;;;;;;;;;14.01;100.00;100470.25;3056819;19;19934;-52
2022/10/26 00:14:56;;;;;;;;;;;;;;;14.02;100.00;100469.28;3056744;19;20015;-52
2022/10/26 00:16:00;;;;;;;;;;;;;;;14.03;100.00;100471.00;3056963;19;19982;-53
2022/10/26 00:17:02;;;;;;;;;;;;;;;13.93;100.00;100478.91;3056602;19;20377;-53
2022/10/26 00:18:06;;;;;;;;;;;;;;;13.97;100.00;100483.06;3056969;19;19923;-52
2022/10/26 00:19:11;;;;;;;;;;;;;;;14.00;100.00;100479.31;3056864;19;20039;-52
2022/10/26 00:20:13;;;;;;;;;;;;;;;14.01;100.00;100489.88;3057010;19;19922;-52
2022/10/26 00:21:18;;;;;;;;;;;;;;;14.04;100.00;100470.88;3056467;19;19926;-52
2022/10/26 00:22:19;;;;;;;;;;;;;;;14.08;100.00;100476.88;3055529;19;19922;-52
2022/10/26 00:23:24;;;;;;;;;;;;;;;14.12;100.00;100488.25;3055253;19;19986;-52
2022/10/26 00:24:25;;;;;;;;;;;;;;;14.12;100.00;100480.19;3056400;19;19920;-52
2022/10/26 00:25:30;;;;;;;;;;;;;;;14.14;100.00;100475.53;3056317;19;19925;-52
2022/10/26 00:26:31;;;;;;;;;;;;;;;14.14;100.00;100480.91;3056151;19;19914;-54
2022/10/26 00:27:36;;;;;;;;;;;;;;;14.13;100.00;100488.09;3056126;19;19914;-52
2022/10/26 00:28:38;;;;;;;;;;;;;;;14.14;100.00;100486.28;3055465;19;19918;-53
2022/10/26 00:29:42;;;;;;;;;;;;;;;14.15;100.00;100482.63;3055098;19;19942;-52
2022/10/26 00:30:44;;;;;;;;;;;;;;;14.14;100.00;100489.81;3055555;19;19930;-53
2022/10/26 00:31:48;;;;;;;;;;;;;;;14.13;100.00;100488.09;3056441;19;19927;-53
2022/10/26 00:32:50;;;;;;;;;;;;;;;14.12;100.00;100482.88;3056342;19;19922;-52
2022/10/26 00:33:58;;;;;;;;;;;;;;;14.11;100.00;100487.38;3056390;19;19935;-52
2022/10/26 00:35:00;;;;;;;;;;;;;;;14.09;100.00;100483.09;3055909;19;19927;-52
2022/10/26 00:36:24;;;;;;;;;;;;;;;14.05;100.00;100475.28;3056506;19;19929;-52
2022/10/26 00:37:26;;;;;;;;;;;;;;;14.05;100.00;100482.47;3055958;19;20419;-52
2022/10/26 00:38:30;;;;;;;;;;;;;;;14.02;100.00;100488.06;3056337;19;20341;-52
2022/10/26 00:39:32;;;;;;;;;;;;;;;14.01;100.00;100486.34;3055903;19;19978;-52
2022/10/26 00:40:37;;;;;;;;;;;;;;;13.99;100.00;100491.88;3056210;19;19923;-52
2022/10/26 00:41:41;;;;;;;;;;;;;;;13.97;100.00;100496.47;3055994;19;19923;-52
2022/10/26 00:42:43;;;;;;;;;;;;;;;13.94;100.00;100485.97;3056223;19;19986;-52
2022/10/26 00:43:47;;;;;;;;;;;;;;;13.95;100.00;100497.56;3055632;19;19919;-52
2022/10/26 00:44:49;;;;;;;;;;;;;;;13.93;100.00;100495.00;3056324;19;19954;-53
2022/10/26 00:45:54;;;;;;;;;;;;;;;13.93;100.00;100500.34;3056151;19;19923;-52
2022/10/26 00:46:55;;;;;;;;;;;;;;;13.91;100.00;100488.88;3055509;19;19934;-52
2022/10/26 00:48:01;;;;;;;;;;;;;;;13.90;100.00;100492.53;3054864;19;19954;-53
2022/10/26 00:49:04;;;;;;;;;;;;;;;13.89;100.00;100488.13;3056316;19;19925;-53
2022/10/26 00:50:10;;;;;;;;;;;;;;;13.91;100.00;100496.94;3054725;19;19919;-52
2022/10/26 00:51:14;;;;;;;;;;;;;;;13.89;100.00;100493.50;3055457;19;19939;-52
2022/10/26 00:52:19;;;;;;;;;;;;;;;13.88;100.00;100491.81;3054895;19;19923;-52
2022/10/26 00:53:20;;;;;;;;;;;;;;;13.87;100.00;100489.25;3055306;19;19919;-52
2022/10/26 00:54:25;;;;;;;;;;;;;;;13.87;100.00;100492.78;3055645;19;19944;-52
2022/10/26 00:55:28;;;;;;;;;;;;;;;13.85;100.00;100496.53;3055917;19;20269;-52
2022/10/26 00:56:33;;;;;;;;;;;;;;;13.87;100.00;100494.63;3055901;19;19914;-52
2022/10/26 00:57:35;;;;;;;;;;;;;;;13.86;100.00;100492.91;3055850;19;19942;-52
2022/10/26 00:58:40;;;;;;;;;;;;;;;13.84;100.00;100489.47;3055894;19;19923;-52
2022/10/26 00:59:43;;;;;;;;;;;;;;;13.84;100.00;100495.69;3055211;19;19922;-52
2022/10/26 01:00:47;;;;;;;;;;;;;;;13.87;100.00;100498.16;3054904;19;20249;-52
2022/10/26 01:01:49;;;;;;;;;;;;;;;13.84;100.00;100486.78;3055225;19;20273;-52
2022/10/26 01:02:53;;;;;;;;;;;;;;;13.84;100.00;100484.97;3054548;19;19925;-53
2022/10/26 01:03:55;;;;;;;;;;;;;;;13.79;100.00;100484.44;3054722;19;20026;-52
2022/10/26 01:04:59;;;;;;;;;;;;;;;13.80;100.00;100479.94;3053876;19;20390;-52
2022/10/26 01:06:01;;;;;;;;;;;;;;;13.86;100.00;100491.06;3055879;19;20308;-52
2022/10/26 01:07:06;;;;;;;;;;;;;;;13.83;100.00;100488.59;3055806;19;19919;-52
2022/10/26 01:08:07;;;;;;;;;;;;;;;13.83;100.00;100488.59;3055059;19;19918;-52
2022/10/26 01:09:12;;;;;;;;;;;;;;;13.83;100.00;100493.13;3054699;19;20457;-52
2022/10/26 01:10:14;;;;;;;;;;;;;;;13.82;100.00;100489.59;3054849;19;19944;-53
2022/10/26 01:11:18;;;;;;;;;;;;;;;13.82;100.00;100497.63;3054831;19;19914;-52
2022/10/26 01:12:20;;;;;;;;;;;;;;;13.80;100.00;100496.88;3055633;19;19923;-52
2022/10/26 01:13:24;;;;;;;;;;;;;;;13.80;100.00;100496.03;3055946;19;19923;-52
2022/10/26 01:14:26;;;;;;;;;;;;;;;13.78;100.00;100493.44;3056005;19;19925;-52
2022/10/26 01:15:34;;;;;;;;;;;;;;;13.80;100.00;100493.34;3054991;19;19923;-53
2022/10/26 01:16:38;;;;;;;;;;;;;;;13.79;100.00;100497.00;3055056;19;19919;-52
2022/10/26 01:17:55;;;;;;;;;;;;;;;13.78;100.00;100501.50;3054983;19;19923;-52
2022/10/26 01:19:03;;;;;;;;;;;;;;;13.73;100.00;100484.91;3055426;19;19950;-52
2022/10/26 01:20:13;;;;;;;;;;;;;;;13.77;100.00;100494.41;3055810;19;19933;-53
2022/10/26 01:21:15;;;;;;;;;;;;;;;13.75;100.00;100485.66;3054732;19;19914;-52
2022/10/26 01:22:21;;;;;;;;;;;;;;;13.75;100.00;100490.16;3055159;19;19919;-52
2022/10/26 01:23:25;;;;;;;;;;;;;;;13.74;100.00;100492.00;3054753;19;19923;-52
2022/10/26 01:24:32;;;;;;;;;;;;;;;13.72;100.00;100485.03;3054910;19;19939;-52
2022/10/26 01:25:39;;;;;;;;;;;;;;;13.71;100.00;100492.22;3054833;19;19925;-52
2022/10/26 01:26:48;;;;;;;;;;;;;;;13.70;100.00;100493.19;3054345;19;19923;-52
2022/10/26 01:27:50;;;;;;;;;;;;;;;13.67;100.00;100494.25;3054227;19;19936;-52
2022/10/26 01:28:57;;;;;;;;;;;;;;;13.67;100.00;100488.03;3054559;19;19922;-52
2022/10/26 01:30:17;;;;;;;;;;;;;;;13.66;100.00;100497.03;3054803;19;19927;-52
2022/10/26 01:31:23;;;;;;;;;;;;;;;13.69;100.00;100496.81;3054912;19;19966;-52
2022/10/26 01:32:33;;;;;;;;;;;;;;;13.69;100.00;100492.31;3054840;19;19923;-55
2022/10/26 01:33:43;;;;;;;;;;;;;;;13.72;100.00;100496.59;3054495;19;20302;-52
2022/10/26 01:34:51;;;;;;;;;;;;;;;13.76;100.00;100497.25;3054794;19;19930;-52
2022/10/26 01:36:01;;;;;;;;;;;;;;;13.79;100.00;100497.84;3054836;19;19923;-52
2022/10/26 01:37:07;;;;;;;;;;;;;;;13.83;100.00;100493.97;3055567;19;19923;-52
2022/10/26 01:38:12;;;;;;;;;;;;;;;13.86;100.00;100493.75;3055217;19;19923;-52
2022/10/26 01:39:22;;;;;;;;;;;;;;;13.90;100.00;100500.56;3054689;19;19945;-52
2022/10/26 01:40:29;;;;;;;;;;;;;;;13.91;100.00;100496.94;3054697;19;19915;-52
2022/10/26 01:42:00;;;;;;;;;;;;;;;13.93;100.00;100499.50;3055324;19;19936;-53
2022/10/26 01:43:04;;;;;;;;;;;;;;;13.95;100.00;100503.78;3055109;19;19927;-52
2022/10/26 01:44:11;;;;;;;;;;;;;;;13.95;100.00;100505.59;3054492;19;19922;-52
2022/10/26 01:45:13;;;;;;;;;;;;;;;13.97;100.00;100499.16;3054706;19;19926;-52
2022/10/26 01:46:17;;;;;;;;;;;;;;;13.97;100.00;100504.53;3054431;19;19992;-52
2022/10/26 01:47:20;;;;;;;;;;;;;;;13.98;100.00;100500.88;3054417;19;20345;-52
2022/10/26 01:48:24;;;;;;;;;;;;;;;14.02;100.00;100509.53;3054685;19;19974;-53
2022/10/26 01:49:27;;;;;;;;;;;;;;;14.01;100.00;100503.31;3054679;19;19914;-52
2022/10/26 01:50:31;;;;;;;;;;;;;;;14.02;100.00;100514.91;3054420;19;19927;-52
2022/10/26 01:51:33;;;;;;;;;;;;;;;14.01;100.00;100511.34;3053994;19;19930;-52
2022/10/26 01:52:38;;;;;;;;;;;;;;;14.02;100.00;100515.75;3054419;19;19927;-52
2022/10/26 01:53:41;;;;;;;;;;;;;;;14.03;100.00;100512.09;3055626;19;19922;-52
2022/10/26 01:54:45;;;;;;;;;;;;;;;14.03;100.00;100519.28;3054330;19;19911;-52
2022/10/26 01:55:48;;;;;;;;;;;;;;;14.02;100.00;100521.13;3054321;19;20326;-52
2022/10/26 01:56:53;;;;;;;;;;;;;;;14.00;100.00;100525.78;3055111;19;19919;-52
2022/10/26 01:57:56;;;;;;;;;;;;;;;14.01;100.00;100519.41;3054251;19;19945;-53
2022/10/26 01:59:03;;;;;;;;;;;;;;;14.00;100.00;100528.47;3054331;19;19923;-52
2022/10/26 02:00:11;;;;;;;;;;;;;;;13.99;100.00;100526.75;3053973;19;20383;-52
2022/10/26 02:01:32;;;;;;;;;;;;;;;13.96;100.00;100531.47;3054253;19;19945;-52
2022/10/26 02:02:54;;;;;;;;;;;;;;;13.97;100.00;100528.69;3054304;19;19928;-53
2022/10/26 02:04:04;;;;;;;;;;;;;;;13.98;100.00;100535.75;3055307;19;20345;-52
2022/10/26 02:05:17;;;;;;;;;;;;;;;13.98;100.00;100538.44;3053931;19;20373;-52
2022/10/26 02:06:28;;;;;;;;;;;;;;;13.97;100.00;100534.03;3054249;19;20372;-52
2022/10/26 02:07:30;;;;;;;;;;;;;;;13.97;100.00;100536.72;3054089;19;20342;-52
2022/10/26 02:08:40;;;;;;;;;;;;;;;13.97;100.00;100533.19;3055367;19;20015;-53
2022/10/26 02:09:42;;;;;;;;;;;;;;;13.95;100.00;100535.97;3055212;19;19923;-52
2022/10/26 02:11:05;;;;;;;;;;;;;;;13.97;100.00;100546.59;3054772;19;19919;-53
2022/10/26 02:12:15;;;;;;;;;;;;;;;13.94;100.00;100545.00;3055633;19;19915;-52
2022/10/26 02:13:20;;;;;;;;;;;;;;;13.93;100.00;100543.28;3054159;19;19915;-52
2022/10/26 02:14:31;;;;;;;;;;;;;;;13.94;100.00;100550.38;3054590;19;20245;-52
2022/10/26 02:15:52;;;;;;;;;;;;;;;13.92;100.00;100546.94;3054538;19;19927;-53
2022/10/26 02:17:01;;;;;;;;;;;;;;;13.91;100.00;100547.03;3059349;19;20242;-53
2022/10/26 02:18:08;;;;;;;;;;;;;;;13.90;100.00;100548.88;3057252;19;19933;-52
2022/10/26 02:19:16;;;;;;;;;;;;;;;13.89;100.00;100547.16;3057256;19;19946;-53
2022/10/26 02:20:21;;;;;;;;;;;;;;;13.87;100.00;100549.13;3058318;19;19915;-52
2022/10/26 02:21:27;;;;;;;;;;;;;;;13.84;100.00;100541.28;3057102;19;19919;-52
2022/10/26 02:22:34;;;;;;;;;;;;;;;13.84;100.00;100546.66;3057215;19;20262;-53
2022/10/26 02:23:39;;;;;;;;;;;;;;;13.83;100.00;100550.31;3057124;19;20288;-53
2022/10/26 02:24:40;;;;;;;;;;;;;;;13.82;100.00;100547.72;3057116;19;19929;-52
2022/10/26 02:25:49;;;;;;;;;;;;;;;13.81;100.00;100544.19;3057252;19;19936;-52
2022/10/26 02:26:51;;;;;;;;;;;;;;;13.82;100.00;100550.41;3057237;19;19930;-52
2022/10/26 02:27:57;;;;;;;;;;;;;;;13.82;100.00;100551.28;3056891;19;19919;-53
2022/10/26 02:29:00;;;;;;;;;;;;;;;13.81;100.00;100554.94;3057293;19;19947;-52
2022/10/26 02:30:05;;;;;;;;;;;;;;;13.82;100.00;100550.41;3056978;19;19922;-52
2022/10/26 02:31:06;;;;;;;;;;;;;;;13.82;100.00;100556.63;3057191;19;19923;-52
2022/10/26 02:32:11;;;;;;;;;;;;;;;13.82;100.00;100551.28;3055812;19;19919;-52
2022/10/26 02:33:12;;;;;;;;;;;;;;;13.81;100.00;100544.19;3056942;19;20302;-52
2022/10/26 02:34:17;;;;;;;;;;;;;;;13.83;100.00;100554.81;3057197;19;19918;-52
2022/10/26 02:35:20;;;;;;;;;;;;;;;13.83;100.00;100554.81;3057245;19;19926;-52
2022/10/26 02:36:27;;;;;;;;;;;;;;;13.80;100.00;100547.00;3056852;19;20349;-52
2022/10/26 02:37:28;;;;;;;;;;;;;;;13.79;100.00;100553.31;3057304;19;20292;-53
2022/10/26 02:38:33;;;;;;;;;;;;;;;13.79;100.00;100554.19;3058227;19;20412;-52
2022/10/26 02:39:34;;;;;;;;;;;;;;;13.78;100.00;100554.28;3056599;19;20326;-52
2022/10/26 02:40:39;;;;;;;;;;;;;;;13.77;100.00;100548.06;3056673;19;20353;-56
2022/10/26 02:41:41;;;;;;;;;;;;;;;13.75;100.00;100554.53;3057774;19;19915;-54
2022/10/26 02:42:45;;;;;;;;;;;;;;;13.74;100.00;100559.03;3056692;19;19929;-56
2022/10/26 02:43:50;;;;;;;;;;;;;;;13.73;100.00;100560.00;3056818;19;19979;-52
2022/10/26 02:44:59;;;;;;;;;;;;;;;13.73;100.00;100564.50;3056683;19;19926;-52
2022/10/26 02:46:10;;;;;;;;;;;;;;;13.74;100.00;100564.41;3057145;19;19998;-52
2022/10/26 02:47:15;;;;;;;;;;;;;;;13.74;100.00;100564.41;3057411;19;19940;-52
2022/10/26 02:48:16;;;;;;;;;;;;;;;13.72;100.00;100566.34;3057951;19;19922;-53
2022/10/26 02:49:21;;;;;;;;;;;;;;;13.69;100.00;100563.88;3057229;19;19919;-52
2022/10/26 02:50:23;;;;;;;;;;;;;;;13.72;100.00;100570.84;3055693;19;19926;-53
2022/10/26 02:51:57;;;;;;;;;;;;;;;13.73;100.00;100559.16;3056895;19;19918;-52
2022/10/26 02:52:59;;;;;;;;;;;;;;;13.73;100.00;100562.69;3055970;19;19919;-53
2022/10/26 02:54:05;;;;;;;;;;;;;;;13.73;100.00;100570.75;3056130;19;19919;-52
2022/10/26 02:55:11;;;;;;;;;;;;;;;13.73;100.00;100568.06;3056618;19;19926;-52
2022/10/26 02:56:17;;;;;;;;;;;;;;;13.74;100.00;100563.56;3056270;19;19922;-52
2022/10/26 02:57:18;;;;;;;;;;;;;;;13.73;100.00;100568.06;3056291;19;20588;-52
2022/10/26 02:58:27;;;;;;;;;;;;;;;13.74;100.00;100575.13;3056976;19;19923;-52
2022/10/26 02:59:30;;;;;;;;;;;;;;;13.76;100.00;100572.34;3056557;19;19919;-52
2022/10/26 03:00:34;;;;;;;;;;;;;;;13.76;100.00;100567.84;3055873;19;20356;-52
2022/10/26 03:01:36;;;;;;;;;;;;;;;13.78;100.00;100571.25;3056570;19;19927;-52
2022/10/26 03:02:41;;;;;;;;;;;;;;;13.79;100.00;100572.09;3057372;19;19923;-52
2022/10/26 03:03:49;;;;;;;;;;;;;;;13.79;100.00;100572.94;3056747;19;19920;-52
2022/10/26 03:04:53;;;;;;;;;;;;;;;13.78;100.00;100579.28;3057067;19;19927;-52
2022/10/26 03:05:55;;;;;;;;;;;;;;;13.78;100.00;100579.28;3057245;19;19949;-52
2022/10/26 03:06:59;;;;;;;;;;;;;;;13.78;100.00;100581.97;3057495;19;19928;-53
2022/10/26 03:08:01;;;;;;;;;;;;;;;13.79;100.00;100582.81;3057064;19;20340;-52
2022/10/26 03:09:06;;;;;;;;;;;;;;;13.80;100.00;100584.53;3057466;19;19919;-53
2022/10/26 03:10:10;;;;;;;;;;;;;;;13.79;100.00;100586.38;3057641;19;19922;-52
2022/10/26 03:11:12;;;;;;;;;;;;;;;13.80;100.00;100582.72;3057339;19;20269;-53
2022/10/26 03:12:17;;;;;;;;;;;;;;;13.81;100.00;100588.94;3056936;19;19919;-52
2022/10/26 03:13:19;;;;;;;;;;;;;;;13.80;100.00;100589.91;3057409;19;19930;-52
2022/10/26 03:14:23;;;;;;;;;;;;;;;13.80;100.00;100581.84;3057406;19;19941;-52
2022/10/26 03:15:25;;;;;;;;;;;;;;;13.81;100.00;100588.94;3057105;19;19922;-53
2022/10/26 03:16:29;;;;;;;;;;;;;;;13.81;100.00;100592.47;3057346;19;20283;-52
2022/10/26 03:17:31;;;;;;;;;;;;;;;13.80;100.00;100585.41;3057052;19;19930;-52
2022/10/26 03:18:35;;;;;;;;;;;;;;;13.80;100.00;100596.13;3057308;19;19954;-52
2022/10/26 03:19:37;;;;;;;;;;;;;;;13.80;100.00;100590.75;3056923;19;19927;-52
2022/10/26 03:20:42;;;;;;;;;;;;;;;13.79;100.00;100589.03;3057254;19;19930;-52
2022/10/26 03:21:43;;;;;;;;;;;;;;;13.80;100.00;100592.59;3057054;19;20352;-52
2022/10/26 03:22:51;;;;;;;;;;;;;;;13.79;100.00;100596.22;3056648;19;19918;-52
2022/10/26 03:23:53;;;;;;;;;;;;;;;13.79;100.00;100599.78;3057073;19;20009;-52
2022/10/26 03:24:57;;;;;;;;;;;;;;;13.80;100.00;100597.94;3057277;19;19919;-52
2022/10/26 03:25:59;;;;;;;;;;;;;;;13.79;100.00;100596.22;3057190;19;19922;-52
2022/10/26 03:27:03;;;;;;;;;;;;;;;13.78;100.00;100598.06;3056957;19;19957;-52
2022/10/26 03:28:06;;;;;;;;;;;;;;;13.79;100.00;100593.56;3056268;19;19919;-52
2022/10/26 03:29:10;;;;;;;;;;;;;;;13.79;100.00;100593.56;3057186;19;19958;-52
2022/10/26 03:30:12;;;;;;;;;;;;;;;13.76;100.00;100591.13;3057164;19;19925;-52
2022/10/26 03:31:16;;;;;;;;;;;;;;;13.76;100.00;100608.06;3057348;19;19948;-52
2022/10/26 03:32:18;;;;;;;;;;;;;;;13.76;100.00;100601.84;3056689;19;19934;-52
2022/10/26 03:33:22;;;;;;;;;;;;;;;13.75;100.00;100609.03;3057341;19;19926;-52
2022/10/26 03:34:28;;;;;;;;;;;;;;;13.74;100.00;100612.69;3056937;19;19969;-52
2022/10/26 03:35:32;;;;;;;;;;;;;;;13.74;100.00;100612.69;3056409;19;19930;-52
2022/10/26 03:36:37;;;;;;;;;;;;;;;13.73;100.00;100600.25;3056868;19;20265;-52
2022/10/26 03:37:38;;;;;;;;;;;;;;;13.73;100.00;100610.97;3056628;19;19919;-52
2022/10/26 03:38:43;;;;;;;;;;;;;;;13.72;100.00;100614.63;3056983;19;19923;-52
2022/10/26 03:39:45;;;;;;;;;;;;;;;13.73;100.00;100618.16;3057229;19;20341;-52
2022/10/26 03:40:50;;;;;;;;;;;;;;;13.71;100.00;100610.22;3056647;19;19923;-52
2022/10/26 03:41:51;;;;;;;;;;;;;;;13.73;100.00;100615.47;3057017;19;19923;-53
2022/10/26 03:42:57;;;;;;;;;;;;;;;13.73;100.00;100610.97;3056529;19;19994;-52
2022/10/26 03:43:58;;;;;;;;;;;;;;;13.72;100.00;100619.97;3057238;19;19939;-52
2022/10/26 03:45:03;;;;;;;;;;;;;;;13.72;100.00;100606.56;3057089;19;19919;-52
2022/10/26 03:46:08;;;;;;;;;;;;;;;13.73;100.00;100616.34;3057190;19;19926;-52
2022/10/26 03:47:10;;;;;;;;;;;;;;;13.73;100.00;100621.69;3056663;19;20256;-52
2022/10/26 03:48:14;;;;;;;;;;;;;;;13.73;100.00;100613.66;3056804;19;20245;-53
2022/10/26 03:49:16;;;;;;;;;;;;;;;13.73;100.00;100623.53;3054641;19;19915;-52
2022/10/26 03:50:21;;;;;;;;;;;;;;;13.72;100.00;100619.97;3058500;19;19919;-53
2022/10/26 03:51:23;;;;;;;;;;;;;;;13.73;100.00;100627.06;3056272;19;19934;-53
2022/10/26 03:52:27;;;;;;;;;;;;;;;13.72;100.00;100625.34;3056689;19;20344;-52
2022/10/26 03:53:29;;;;;;;;;;;;;;;13.72;100.00;100624.47;3056586;19;19919;-52
2022/10/26 03:54:33;;;;;;;;;;;;;;;13.71;100.00;100620.94;3058120;19;19926;-52
2022/10/26 03:55:35;;;;;;;;;;;;;;;13.67;100.00;100622.97;3056641;19;20356;-53
2022/10/26 03:56:39;;;;;;;;;;;;;;;13.67;100.00;100622.97;3057166;19;19953;-52
2022/10/26 03:57:42;;;;;;;;;;;;;;;13.68;100.00;100615.78;3056364;19;19915;-52
2022/10/26 03:58:46;;;;;;;;;;;;;;;13.67;100.00;100622.97;3056635;19;19979;-53
2022/10/26 03:59:48;;;;;;;;;;;;;;;13.67;100.00;100616.75;3056123;19;20251;-52
2022/10/26 04:00:52;;;;;;;;;;;;;;;13.65;100.00;100619.56;3056975;19;19994;-52
2022/10/26 04:01:54;;;;;;;;;;;;;;;13.66;100.00;100620.41;3056574;19;20250;-52
2022/10/26 04:03:01;;;;;;;;;;;;;;;13.66;100.00;100620.41;3057581;19;20257;-53
2022/10/26 04:04:03;;;;;;;;;;;;;;;13.66;100.00;100620.41;3057199;19;19934;-52
2022/10/26 04:05:08;;;;;;;;;;;;;;;13.63;100.00;100616.16;3055340;19;20008;-52
2022/10/26 04:06:12;;;;;;;;;;;;;;;13.63;100.00;100621.50;3056266;19;19944;-52
2022/10/26 04:07:14;;;;;;;;;;;;;;;13.62;100.00;100630.53;3055474;19;20328;-54
2022/10/26 04:08:18;;;;;;;;;;;;;;;13.59;100.00;100629.88;3057500;19;20295;-53
2022/10/26 04:09:20;;;;;;;;;;;;;;;13.60;100.00;100631.59;3056808;19;20326;-52
2022/10/26 04:10:25;;;;;;;;;;;;;;;13.60;100.00;100626.22;3055972;19;20407;-52
2022/10/26 04:11:27;;;;;;;;;;;;;;;13.61;100.00;100627.94;3056652;19;19938;-53
2022/10/26 04:12:31;;;;;;;;;;;;;;;13.61;100.00;100627.94;3056374;19;19945;-52
2022/10/26 04:13:33;;;;;;;;;;;;;;;13.59;100.00;100629.88;3056119;19;19929;-52
2022/10/26 04:14:38;;;;;;;;;;;;;;;13.61;100.00;100634.16;3056404;19;19941;-52
2022/10/26 04:15:40;;;;;;;;;;;;;;;13.62;100.00;100629.66;3052240;19;19927;-53
2022/10/26 04:16:44;;;;;;;;;;;;;;;13.61;100.00;100627.94;3055273;19;19942;-52
2022/10/26 04:17:46;;;;;;;;;;;;;;;13.62;100.00;100627.84;3056643;19;19953;-52
2022/10/26 04:18:51;;;;;;;;;;;;;;;13.62;100.00;100626.97;3056518;19;19978;-52
2022/10/26 04:19:52;;;;;;;;;;;;;;;13.64;100.00;100633.09;3056580;19;19934;-53
2022/10/26 04:20:57;;;;;;;;;;;;;;;13.64;100.00;100628.56;3056363;19;19919;-52
2022/10/26 04:21:59;;;;;;;;;;;;;;;13.64;100.00;100628.56;3055759;19;19978;-53
2022/10/26 04:23:04;;;;;;;;;;;;;;;13.63;100.00;100626.88;3056554;19;19930;-52
2022/10/26 04:24:06;;;;;;;;;;;;;;;13.64;100.00;100627.72;3056653;19;19934;-53
2022/10/26 04:25:12;;;;;;;;;;;;;;;13.64;100.00;100630.41;3056593;19;19922;-52
2022/10/26 04:26:16;;;;;;;;;;;;;;;13.64;100.00;100623.19;3056567;19;19926;-52
2022/10/26 04:27:18;;;;;;;;;;;;;;;13.66;100.00;100631.13;3056651;19;19925;-53
2022/10/26 04:28:23;;;;;;;;;;;;;;;13.65;100.00;100630.28;3056415;19;20335;-52
2022/10/26 04:29:24;;;;;;;;;;;;;;;13.66;100.00;100625.78;3056529;19;19926;-52
2022/10/26 04:30:29;;;;;;;;;;;;;;;13.67;100.00;100630.16;3056546;19;19919;-52
2022/10/26 04:31:31;;;;;;;;;;;;;;;13.67;100.00;100627.50;3056524;19;20018;-52
2022/10/26 04:32:35;;;;;;;;;;;;;;;13.70;100.00;100632.63;3056050;19;19953;-52
2022/10/26 04:33:37;;;;;;;;;;;;;;;13.70;100.00;100627.28;3055981;19;19918;-52
2022/10/26 04:34:42;;;;;;;;;;;;;;;13.69;100.00;100633.59;3056146;19;19927;-53
2022/10/26 04:35:44;;;;;;;;;;;;;;;13.68;100.00;100629.19;3056284;19;19922;-52
2022/10/26 04:36:49;;;;;;;;;;;;;;;13.69;100.00;100630.91;3056166;19;20281;-52
2022/10/26 04:37:51;;;;;;;;;;;;;;;13.69;100.00;100633.59;3056124;19;19918;-52
2022/10/26 04:38:55;;;;;;;;;;;;;;;13.67;100.00;100622.97;3054815;19;20296;-52
2022/10/26 04:39:57;;;;;;;;;;;;;;;13.67;100.00;100632.84;3055215;19;19918;-52
2022/10/26 04:41:01;;;;;;;;;;;;;;;13.67;100.00;100638.22;3056068;19;20342;-52
2022/10/26 04:42:03;;;;;;;;;;;;;;;13.66;100.00;100636.50;3056388;19;19927;-52
2022/10/26 04:43:08;;;;;;;;;;;;;;;13.66;100.00;100636.50;3056138;19;19926;-52
2022/10/26 04:44:10;;;;;;;;;;;;;;;13.61;100.00;100634.16;3056390;19;19934;-52
2022/10/26 04:45:15;;;;;;;;;;;;;;;13.62;100.00;100640.38;3055113;19;19927;-52
2022/10/26 04:46:17;;;;;;;;;;;;;;;13.60;100.00;100637.81;3055440;19;19933;-52
2022/10/26 04:47:21;;;;;;;;;;;;;;;13.59;100.00;100640.59;3055737;19;19915;-52
2022/10/26 04:48:23;;;;;;;;;;;;;;;13.58;100.00;100639.75;3056159;19;19941;-52
2022/10/26 04:49:28;;;;;;;;;;;;;;;13.60;100.00;100645.00;3055346;19;20412;-52
2022/10/26 04:50:30;;;;;;;;;;;;;;;13.59;100.00;100638.78;3056442;19;19986;-52
2022/10/26 04:51:35;;;;;;;;;;;;;;;13.60;100.00;100647.69;3056031;19;19914;-52
2022/10/26 04:52:36;;;;;;;;;;;;;;;13.58;100.00;100647.78;3056185;19;19922;-52
2022/10/26 04:53:41;;;;;;;;;;;;;;;13.59;100.00;100641.47;3055484;19;20386;-52
2022/10/26 04:54:43;;;;;;;;;;;;;;;13.59;100.00;100643.28;3056340;19;19937;-52
2022/10/26 04:55:47;;;;;;;;;;;;;;;13.58;100.00;100645.09;3055917;19;19919;-52
2022/10/26 04:56:50;;;;;;;;;;;;;;;13.59;100.00;100643.28;3056227;19;19919;-52
2022/10/26 04:57:55;;;;;;;;;;;;;;;13.60;100.00;100653.03;3055517;19;19946;-52
2022/10/26 04:59:01;;;;;;;;;;;;;;;13.59;100.00;100657.56;3056136;19;19919;-52
2022/10/26 05:00:06;;;;;;;;;;;;;;;13.59;100.00;100656.69;3054732;19;20035;-52
2022/10/26 05:01:08;;;;;;;;;;;;;;;13.58;100.00;100649.63;3054928;19;19923;-52
2022/10/26 05:02:13;;;;;;;;;;;;;;;13.56;100.00;100652.41;3055133;19;19929;-52
2022/10/26 05:03:15;;;;;;;;;;;;;;;13.55;100.00;100647.13;3055938;19;20008;-52
2022/10/26 05:04:19;;;;;;;;;;;;;;;13.54;100.00;100653.47;3055416;19;20316;-52
2022/10/26 05:05:21;;;;;;;;;;;;;;;13.54;100.00;100648.09;3056277;19;19937;-53
2022/10/26 05:06:26;;;;;;;;;;;;;;;13.53;100.00;100659.78;3056934;19;19934;-52
2022/10/26 05:07:27;;;;;;;;;;;;;;;13.52;100.00;100658.09;3055936;19;19982;-56
2022/10/26 05:08:32;;;;;;;;;;;;;;;13.52;100.00;100655.44;3055954;19;19918;-53
2022/10/26 05:09:36;;;;;;;;;;;;;;;13.51;100.00;100659.94;3056063;19;19934;-52
2022/10/26 05:10:38;;;;;;;;;;;;;;;13.51;100.00;100664.44;3055684;19;19918;-54
2022/10/26 05:11:42;;;;;;;;;;;;;;;13.50;100.00;100660.88;3056057;19;19946;-52
2022/10/26 05:12:49;;;;;;;;;;;;;;;13.48;100.00;100660.13;3055692;19;19945;-51
2022/10/26 05:13:53;;;;;;;;;;;;;;;13.47;100.00;100663.78;3055564;19;20350;-51
2022/10/26 05:14:57;;;;;;;;;;;;;;;13.50;100.00;100665.41;3055750;19;19915;-52
2022/10/26 05:16:02;;;;;;;;;;;;;;;13.50;100.00;100676.13;3056029;19;19919;-51
2022/10/26 05:17:04;;;;;;;;;;;;;;;13.49;100.00;100669.03;3055698;19;19923;-51
2022/10/26 05:18:08;;;;;;;;;;;;;;;13.50;100.00;100678.81;3056997;19;19923;-52
2022/10/26 05:19:10;;;;;;;;;;;;;;;13.50;100.00;100670.75;3055092;19;20306;-51
2022/10/26 05:20:14;;;;;;;;;;;;;;;13.49;100.00;100667.22;3057398;19;19922;-51
2022/10/26 05:21:18;;;;;;;;;;;;;;;13.50;100.00;100668.06;3056559;19;19946;-52
2022/10/26 05:22:23;;;;;;;;;;;;;;;13.50;100.00;100662.72;3056700;19;19922;-52
2022/10/26 05:23:28;;;;;;;;;;;;;;;13.53;100.00;100678.56;3055741;19;20090;-52
2022/10/26 05:24:29;;;;;;;;;;;;;;;13.52;100.00;100674.19;3055712;19;19919;-52
2022/10/26 05:25:35;;;;;;;;;;;;;;;13.51;100.00;100675.16;3056031;19;20398;-51
2022/10/26 05:26:41;;;;;;;;;;;;;;;13.52;100.00;100676.88;3056963;19;19918;-52
2022/10/26 05:27:42;;;;;;;;;;;;;;;13.53;100.00;100686.59;3057324;19;19919;-52